Aérodrome :
LOGIN :

S'inscrire | Disclaimer

   EN    FR    IT 

 










Légende :    VFR   VFR Marginal   IFR   IFR Intensif   IFR Très Intensif
Visi : 
Plafond : 
>= 8 km
>= 3000ft
5 à 8 km
1000 à 3000 ft
1500m à 5 km
500 à 1000 ft
800 à 1500m
200 à 500 ft
< 800m
< 200 ft
Symboles :   Orages  Brouillard  Fortes neiges  Fortes précipitations  Vent > 20 kt
SIGMETs :   Divers  Orages  Givrage  Turbulence  Onde Orograph.  Cendres Volcan.







- Altitude de l'aérodrome : 129 ft
- Code IATA : ZPQ


ETHE - Rheine Bentlage

DERNIER METAR :
  • 222120Z AUTO 08005KT //// // ////// 08/M00 Q1015 ///

METARs EXPIRÉS :
  • 222020Z AUTO 09007KT //// // ////// 09/M01 Q1015 ///
  • 221920Z AUTO 09005KT //// // ////// 09/M02 Q1015 ///

TAF AMD TAF ETHE
Valide du 22 à 15h jusqu'au 23 à 00h UTC


221419Z 2215/2224 15008KT 9999 NSW SCT100 BKN200 CANCEL 1430
Pas de NOTAMs connus pour ce terrain.



MET'MAP, la Météo Aéronautique d'un coup d'oeil ! - Copyright ORBIFLY Décembre 2007 - Disclaimer

ORBIFLY MET'MAP TEAM :

Programmation & Développement : Alexandra Zaïnal
Conception & Développement : Baudouin d'Aumeries
Co-Programmation & Développement : Marc-Olivier Méhu
Soutien technique & logistique : Manuel Goepfert

Contact : metmap@orbifly.com




SOURCES & CREDITS :

   NOAA